• Join FlightAware (Why Join?)
  • Login
  • US Flag 
06:39AM EDT


 

Airport Tracker/Info


-or-


 

Live Flight TrackerFlight Track Log ✈ SWA3206 ✈ 28-Apr-2013 ✈ KPHX - KBWI

Flight Track Log - Related Links

Times and Time Zones

All times are in EDT time to prevent confusion due to time zone crossing. See the SWA3206 flight status page for this flight to view local times or setup timezone preferences in your user account.

Time Position Orientation Groundspeed Altitude Reporting Facility
EDT Latitude Longitude Course Direction KTS MPH feet Rate Location/Type
09:20PM 33.4333 -112.0333 272° West 174 200 2,000  Level Phoenix TRACON
09:22PM 33.4364 -112.1250 272° West 219 252 4,700 2,280 Climbing Albuquerque Center
09:23PM 33.4556 -112.1933 289° West 243 280 7,500 2,340 Climbing Albuquerque Center
09:24PM 33.5078 -112.1508 34° Northeast 283 326 9,600 2,280 Climbing Albuquerque Center
09:25PM 33.5269 -112.0567 76° East 295 339 12,200 2,340 Climbing Albuquerque Center
09:26PM 33.5511 -111.9450 75° East 352 405 14,400 2,400 Climbing Albuquerque Center
09:27PM 33.5733 -111.8303 77° East 356 410 17,200 2,820 Climbing Albuquerque Center
09:28PM 33.6047 -111.6847 75° East 378 435 20,300 2,700 Climbing Albuquerque Center
09:29PM 33.6308 -111.5575 76° East 394 453 22,800 2,100 Climbing Albuquerque Center
09:30PM 33.6558 -111.4278 77° East 402 463 24,700 1,740 Climbing Albuquerque Center
09:31PM 33.6842 -111.2922 76° East 420 483 26,400 1,620 Climbing Albuquerque Center
09:32PM 33.7281 -111.1586 68° East 434 499 28,100 1,620 Climbing Albuquerque Center
09:33PM 33.7761 -111.0244 67° East 439 505 29,800 1,740 Climbing Albuquerque Center
09:34PM 33.8239 -110.8908 67° East 439 505 31,700 1,800 Climbing Albuquerque Center
09:35PM 33.8803 -110.7331 67° East 433 498 33,600 1,560 Climbing Albuquerque Center
09:36PM 33.9261 -110.6019 67° East 429 494 34,900 1,080 Climbing Albuquerque Center
09:37PM 33.9728 -110.4683 67° East 431 496 35,900 1,020 Climbing Albuquerque Center
09:38PM 34.0164 -110.3453 67° East 435 501 37,000 480 Climbing Albuquerque Center
09:39PM 34.0722 -110.1867 67° East 434 499 37,000  Level Albuquerque Center
09:40PM 34.1172 -110.0575 67° East 432 497 37,000  Level Albuquerque Center
09:41PM 34.1617 -109.9297 67° East 432 497 37,000  Level Albuquerque Center
09:42PM 34.2133 -109.7803 67° East 432 497 37,000  Level Albuquerque Center
09:43PM 34.2581 -109.6519 67° East 433 498 37,000  Level Albuquerque Center
09:44PM 34.3092 -109.5036 67° East 429 494 37,000  Level Albuquerque Center
09:45PM 34.3536 -109.3728 68° East 435 501 37,000  Level Albuquerque Center
09:46PM 34.3972 -109.2442 68° East 434 499 37,000  Level Albuquerque Center
09:47PM 34.4481 -109.0944 68° East 433 498 37,000  Level Albuquerque Center
09:48PM 34.4914 -108.9656 68° East 432 497 37,000  Level Albuquerque Center
09:49PM 34.5419 -108.8178 67° East 429 494 37,000  Level Albuquerque Center
09:50PM 34.5839 -108.6914 68° East 426 490 37,000  Level Albuquerque Center
09:51PM 34.6261 -108.5658 68° East 424 488 37,000  Level Albuquerque Center
09:52PM 34.6706 -108.4314 68° East 421 484 37,000  Level Albuquerque Center
09:53PM 34.7144 -108.2978 68° East 424 488 37,000  Level Albuquerque Center
09:54PM 34.7589 -108.1647 68° East 425 489 37,000  Level Albuquerque Center
09:55PM 34.8028 -108.0300 68° East 427 491 37,000  Level Albuquerque Center
09:56PM 34.8503 -107.8861 68° East 428 493 37,000  Level Albuquerque Center
09:57PM 34.8986 -107.7336 69° East 429 494 37,000  Level Albuquerque Center
09:59PM 34.9422 -107.5983 68° East 428 493 37,000  Level Albuquerque Center
10:00PM 34.9853 -107.4631 69° East 428 493 37,000  Level Albuquerque Center
10:01PM 35.0286 -107.3283 69° East 428 493 37,000  Level Albuquerque Center
10:02PM 35.0744 -107.1839 69° East 427 491 37,000  Level Albuquerque Center
10:03PM 35.1183 -107.0472 69° East 428 493 37,000  Level Albuquerque Center
10:04PM 35.1581 -106.9197 69° East 421 484 37,000  Level Albuquerque Center
10:05PM 35.2067 -106.7714 68° East 421 484 37,000  Level Albuquerque Center
10:06PM 35.2458 -106.6422 70° East 424 488 37,000  Level Albuquerque Center
10:07PM 35.2878 -106.5092 69° East 428 493 37,000  Level Albuquerque Center
10:08PM 35.3286 -106.3733 70° East 427 491 37,000  Level Albuquerque Center
10:09PM 35.3711 -106.2372 69° East 427 491 37,000  Level Albuquerque Center
10:10PM 35.4131 -106.1011 69° East 427 491 37,000  Level Albuquerque Center
10:11PM 35.4550 -105.9656 69° East 425 489 37,000  Level Albuquerque Center
10:12PM 35.4997 -105.8156 70° East 425 489 37,000  Level Albuquerque Center
10:13PM 35.5414 -105.6794 69° East 423 487 37,000  Level Albuquerque Center
10:14PM 35.5822 -105.5408 70° East 426 490 37,000  Level Albuquerque Center
10:15PM 35.6272 -105.3811 71° East 422 486 37,000  Level Albuquerque Center
10:16PM 35.6725 -105.2403 68° East 431 496 37,000  Level Albuquerque Center
10:17PM 35.7097 -105.1025 72° East 423 487 37,000  Level Albuquerque Center
10:18PM 35.7525 -104.9622 69° East 428 493 37,000  Level Albuquerque Center
10:19PM 35.7939 -104.8222 70° East 430 495 37,000  Level Albuquerque Center
10:20PM 35.8347 -104.6819 70° East 429 494 37,000  Level Albuquerque Center
10:21PM 35.8753 -104.5411 70° East 430 495 37,000  Level Albuquerque Center
10:22PM 35.9158 -104.4003 70° East 431 496 37,000  Level Albuquerque Center
10:23PM 35.9581 -104.2578 70° East 434 499 37,000  Level Albuquerque Center
10:24PM 35.9978 -104.1150 71° East 434 499 37,000  Level Albuquerque Center
10:25PM 36.0386 -103.9733 70° East 434 499 37,000  Level Albuquerque Center
10:26PM 36.0783 -103.8308 71° East 433 498 37,000  Level Albuquerque Center
10:27PM 36.1197 -103.6886 70° East 434 499 37,000  Level Albuquerque Center
10:28PM 36.1603 -103.5472 70° East 432 497 37,000  Level Albuquerque Center
10:29PM 36.2003 -103.4036 71° East 435 501 37,000  Level Albuquerque Center
10:30PM 36.2403 -103.2589 71° East 440 506 37,000  Level Albuquerque Center
10:31PM 36.2797 -103.1114 72° East 445 512 37,000  Level Albuquerque Center
10:32PM 36.3192 -102.9656 71° East 443 510 37,000  Level Albuquerque Center
10:33PM 36.3594 -102.8175 71° East 440 506 37,000  Level Albuquerque Center
10:34PM 36.3978 -102.6753 71° East 436 502 37,000  Level Albuquerque Center
10:35PM 36.4372 -102.5317 71° East 438 504 37,000  Level Albuquerque Center
10:36PM 36.4831 -102.3592 72° East 439 505 37,000  Level Albuquerque Center
10:37PM 36.5214 -102.2156 72° East 438 504 37,000  Level Albuquerque Center
10:38PM 36.5594 -102.0728 72° East 436 502 37,000  Level Albuquerque Center
10:39PM 36.5978 -101.9269 72° East 435 501 37,000  Level Albuquerque Center
10:40PM 36.6342 -101.7900 72° East 436 502 37,000  Level Albuquerque Center
10:41PM 36.6756 -101.6281 72° East 439 505 37,000  Level Albuquerque Center
10:42PM 36.7111 -101.4897 72° East 439 505 37,000  Level Albuquerque Center
10:43PM 36.7469 -101.3511 72° East 439 505 37,000  Level Albuquerque Center
10:44PM 36.7594 -101.3053 71° East 438 504 37,000  Level Kansas City Center
10:45PM 36.8003 -101.1461 72° East 435 501 37,000  Level Kansas City Center
10:46PM 36.8350 -101.0064 73° East 440 506 37,000  Level Kansas City Center
10:47PM 36.8697 -100.8686 72° East 439 505 37,000  Level Kansas City Center
10:48PM 36.9106 -100.7089 72° East 436 502 37,000  Level Kansas City Center
10:49PM 36.9444 -100.5719 73° East 434 499 37,000  Level Kansas City Center
10:50PM 36.9853 -100.4117 72° East 435 501 37,000  Level Kansas City Center
10:51PM 37.0181 -100.2747 73° East 433 498 37,000  Level Kansas City Center
10:52PM 37.0519 -100.1386 73° East 431 496 37,000  Level Kansas City Center
10:53PM 37.0908 -99.9767 73° East 434 499 37,000  Level Kansas City Center
10:54PM 37.1244 -99.8389 73° East 435 501 37,000  Level Kansas City Center
10:55PM 37.1631 -99.6764 73° East 437 503 37,000  Level Kansas City Center
10:56PM 37.1969 -99.5367 73° East 438 504 37,000  Level Kansas City Center
10:57PM 37.2322 -99.3875 73° East 439 505 37,000  Level Kansas City Center
10:58PM 37.2669 -99.2386 74° East 443 510 37,000  Level Kansas City Center
10:59PM 37.3028 -99.0869 73° East 437 503 37,000  Level Kansas City Center
11:00PM 37.3364 -98.9392 74° East 439 505 37,000  Level Kansas City Center
11:01PM 37.3711 -98.7944 73° East 437 503 37,000  Level Kansas City Center
11:02PM 37.4053 -98.6472 74° East 437 503 37,000  Level Kansas City Center
11:03PM 37.4383 -98.5014 74° East 436 502 37,000  Level Kansas City Center
11:04PM 37.4725 -98.3547 74° East 436 502 37,000  Level Kansas City Center
11:05PM 37.5061 -98.2078 74° East 438 504 37,000  Level Kansas City Center
11:06PM 37.5389 -98.0614 74° East 438 504 37,000  Level Kansas City Center
11:07PM 37.5697 -97.9161 75° East 435 501 37,000  Level Kansas City Center
11:08PM 37.6097 -97.7408 74° East 439 505 37,000  Level Kansas City Center
11:09PM 37.6419 -97.5853 75° East 437 503 37,000  Level Kansas City Center
11:10PM 37.6739 -97.4483 74° East 437 503 37,000  Level Kansas City Center
11:11PM 37.7069 -97.2978 74° East 444 511 37,000  Level Kansas City Center
11:12PM 37.7389 -97.1500 75° East 440 506 37,000  Level Kansas City Center
11:13PM 37.7711 -96.9997 75° East 444 511 37,000  Level Kansas City Center
11:14PM 37.8033 -96.8500 75° East 443 510 37,000  Level Kansas City Center
11:15PM 37.8350 -96.7008 75° East 440 506 37,000  Level Kansas City Center
11:16PM 37.8664 -96.5517 75° East 440 506 37,000  Level Kansas City Center
11:17PM 37.8978 -96.4022 75° East 440 506 37,000  Level Kansas City Center
11:18PM 37.9344 -96.2247 75° East 436 502 37,000  Level Kansas City Center
11:19PM 37.9617 -96.0919 75° East 434 499 37,000  Level Kansas City Center
11:20PM 37.9953 -95.9292 75° East 430 495 37,000  Level Kansas City Center
11:21PM 38.0242 -95.7858 76° East 436 502 37,000  Level Kansas City Center
11:22PM 38.0525 -95.6433 76° East 437 503 37,000  Level Kansas City Center
11:23PM 38.0858 -95.4775 76° East 438 504 37,000  Level Kansas City Center
11:24PM 38.1144 -95.3347 76° East 437 503 37,000  Level Kansas City Center
11:25PM 38.1475 -95.1689 76° East 435 501 37,000  Level Kansas City Center
11:26PM 38.1744 -95.0244 77° East 440 506 37,000  Level Kansas City Center
11:27PM 38.2025 -94.8831 76° East 435 501 37,000  Level Kansas City Center
11:29PM 38.2350 -94.7161 76° East 436 502 37,000  Level Kansas City Center
11:30PM 38.2628 -94.5717 76° East 438 504 37,000  Level Kansas City Center
11:31PM 38.2900 -94.4292 76° East 437 503 37,000  Level Kansas City Center
11:32PM 38.3225 -94.2597 76° East 439 505 37,000  Level Kansas City Center
11:33PM 38.3497 -94.1150 76° East 440 506 37,000  Level Kansas City Center
11:34PM 38.3775 -93.9583 77° East 437 503 37,000  Level Kansas City Center
11:35PM 38.4056 -93.8056 77° East 440 506 37,000  Level Kansas City Center
11:36PM 38.4333 -93.6528 77° East 441 507 37,000  Level Kansas City Center
11:37PM 38.4625 -93.4997 76° East 442 509 37,000  Level Kansas City Center
11:38PM 38.4894 -93.3469 77° East 440 506 37,000  Level Kansas City Center
11:39PM 38.5169 -93.1953 77° East 438 504 37,000  Level Kansas City Center
11:40PM 38.5431 -93.0439 78° East 436 502 37,000  Level Kansas City Center
11:41PM 38.5700 -92.8939 77° East 432 497 37,000  Level Kansas City Center
11:42PM 38.5964 -92.7425 77° East 433 498 37,000  Level Kansas City Center
11:43PM 38.6222 -92.5900 78° East 435 501 37,000  Level Kansas City Center
11:44PM 38.6483 -92.4383 78° East 434 499 37,000  Level Kansas City Center
11:45PM 38.6744 -92.2847 78° East 436 502 37,000  Level Kansas City Center
11:46PM 38.6997 -92.1322 78° East 435 501 37,000 60 Level Kansas City Center
11:47PM 38.7250 -91.9792 78° East 436 502 37,200 720 Climbing Kansas City Center
11:48PM 38.7500 -91.8261 78° East 435 501 38,500 840 Climbing Kansas City Center
11:49PM 38.7750 -91.6717 78° East 433 498 39,000 240 Climbing Kansas City Center
11:50PM 38.8000 -91.5183 78° East 438 504 39,000  Level Kansas City Center
11:51PM 38.8253 -91.3636 78° East 441 507 39,000  Level Kansas City Center
11:52PM 38.8500 -91.2103 78° East 441 507 39,000  Level Kansas City Center
11:53PM 38.8742 -91.0547 79° East 442 509 39,000  Level Kansas City Center
11:54PM 38.8992 -90.8983 78° East 444 511 39,000  Level Kansas City Center
11:55PM 38.9236 -90.7419 79° East 445 512 39,000  Level Kansas City Center
11:56PM 38.9483 -90.5875 78° East 442 509 39,000  Level Kansas City Center
11:57PM 38.9725 -90.4294 79° East 444 511 39,000  Level Kansas City Center
11:58PM 38.9958 -90.2719 79° East 444 511 39,000  Level Kansas City Center
11:59PM 39.0194 -90.1142 79° East 446 513 39,000  Level Kansas City Center
12:00AM 39.0439 -89.9400 80° East 443 510 39,000  Level Kansas City Center
12:01AM 39.0678 -89.7844 79° East 443 510 39,000  Level Kansas City Center
12:02AM 39.0914 -89.6167 80° East 444 511 39,000  Level Kansas City Center
12:03AM 39.1142 -89.4611 79° East 443 510 39,000  Level Kansas City Center
12:04AM 39.1364 -89.3042 80° East 445 512 39,000  Level Kansas City Center
12:05AM 39.1558 -89.1597 80° East 445 512 39,000  Level Kansas City Center
12:06AM 39.1767 -89.0206 79° East 448 516 39,000  Level Kansas City Center
12:07AM 39.2017 -88.8319 80° East 446 513 39,000  Level Kansas City Center
12:08AM 39.2269 -88.6775 78° East 444 511 39,000  Level Kansas City Center
12:09AM 39.2467 -88.5139 81° East 446 513 39,000  Level Kansas City Center
12:10AM 39.2686 -88.3550 80° East 447 514 39,000  Level Kansas City Center
12:11AM 39.2900 -88.1961 80° East 447 514 39,000  Level Kansas City Center
12:12AM 39.3108 -88.0369 80° East 448 516 39,000  Level Kansas City Center
12:13AM 39.3308 -87.8775 81° East 448 516 39,000  Level Kansas City Center
12:14AM 39.3511 -87.7183 81° East 447 514 39,000  Level Kansas City Center
12:15AM 39.3717 -87.5514 81° East 452 520 39,000  Level Indianapolis Center
12:16AM 39.3906 -87.3881 81° East 457 526 39,000  Level Indianapolis Center
12:17AM 39.4106 -87.2275 81° East 453 521 39,000  Level Indianapolis Center
12:18AM 39.4311 -87.0639 81° East 457 526 39,000  Level Indianapolis Center
12:19AM 39.4506 -86.9019 81° East 456 525 39,000  Level Indianapolis Center
12:20AM 39.4700 -86.7400 81° East 454 522 39,000  Level Indianapolis Center
12:21AM 39.4897 -86.5781 81° East 454 522 39,000  Level Indianapolis Center
12:22AM 39.5081 -86.4175 82° East 453 521 39,000  Level Indianapolis Center
12:23AM 39.5258 -86.2558 82° East 456 525 39,000  Level Indianapolis Center
12:24AM 39.5447 -86.0944 81° East 458 527 39,000  Level Indianapolis Center
12:25AM 39.5633 -85.9308 82° East 461 531 39,000  Level Indianapolis Center
12:26AM 39.5808 -85.7650 82° East 464 534 39,000  Level Indianapolis Center
12:27AM 39.6000 -85.5972 82° East 467 537 39,000  Level Indianapolis Center
12:28AM 39.6178 -85.4292 82° East 469 540 39,000  Level Indianapolis Center
12:29AM 39.6364 -85.2606 82° East 471 542 39,000  Level Indianapolis Center
12:30AM 39.6531 -85.0911 83° East 473 544 39,000  Level Indianapolis Center
12:31AM 39.6708 -84.9225 82° East 470 541 39,000  Level Indianapolis Center
12:32AM 39.6886 -84.7544 82° East 473 544 39,000  Level Indianapolis Center
12:33AM 39.7056 -84.5847 83° East 471 542 39,000  Level Indianapolis Center
12:34AM 39.7225 -84.4136 83° East 474 545 39,000  Level Indianapolis Center
12:35AM 39.7389 -84.2425 83° East 475 547 39,000  Level Indianapolis Center
12:36AM 39.7542 -84.0722 83° East 473 544 39,000  Level Indianapolis Center
12:37AM 39.7614 -83.9019 87° East 471 542 39,000  Level Indianapolis Center
12:38AM 39.7606 -83.7325 90° East 467 537 39,000  Level Indianapolis Center
12:39AM 39.7594 -83.5608 90° East 470 541 39,000  Level Indianapolis Center
12:40AM 39.7611 -83.3983 89° East 471 542 39,000  Level Indianapolis Center
12:41AM 39.7589 -83.2294 91° East 470 541 39,000  Level Indianapolis Center
12:42AM 39.7578 -83.0606 90° East 468 539 39,000  Level Indianapolis Center
12:43AM 39.7564 -82.8892 91° East 470 541 39,000  Level Indianapolis Center
12:44AM 39.7553 -82.7192 90° East 468 539 39,000  Level Indianapolis Center
12:45AM 39.7536 -82.5483 91° East 469 540 39,000  Level Indianapolis Center
12:46AM 39.7511 -82.3764 91° East 471 542 39,000  Level Indianapolis Center
12:47AM 39.7492 -82.2039 91° East 475 547 39,000  Level Indianapolis Center
12:48AM 39.7456 -82.0325 92° East 473 544 39,000  Level Indianapolis Center
12:49AM 39.7425 -81.8586 91° East 477 549 39,000  Level Indianapolis Center
12:50AM 39.7292 -81.6872 96° East 474 545 39,000  Level Indianapolis Center
12:51AM 39.7269 -81.6142 92° East 479 551 39,000  Level Cleveland Center
12:52AM 39.7136 -81.4439 96° East 479 551 39,000  Level Cleveland Center
12:53AM 39.7003 -81.2736 96° East 479 551 39,000  Level Cleveland Center
12:54AM 39.6886 -81.1036 95° East 479 551 39,000  Level Cleveland Center
12:55AM 39.6769 -80.9308 95° East 479 551 39,000  Level Cleveland Center
12:56AM 39.6625 -80.7636 96° East 479 551 39,000  Level Cleveland Center
12:57AM 39.6394 -80.4856 96° East 489 563 39,000  Level Washington Center
12:58AM 39.6253 -80.3147 96° East 482 555 39,000  Level Washington Center
12:59AM 39.6111 -80.1414 96° East 482 555 39,000  Level Washington Center
01:00AM 39.5944 -79.9706 97° East 482 555 39,000  Level Washington Center
01:01AM 39.5800 -79.7972 96° East 482 555 39,000 -720 Level Washington Center
01:02AM 39.5644 -79.6375 97° East 489 563 37,700 -1,980 Descending Washington Center
01:03AM 39.5494 -79.4644 96° East 489 563 35,100 -2,400 Descending Washington Center
01:04AM 39.5319 -79.2886 97° East 489 563 33,000 -2,160 Descending Washington Center
01:05AM 39.5128 -79.0911 97° East 489 563 30,900 -2,100 Descending Washington Center
01:06AM 39.4969 -78.9183 97° East 489 563 28,800 -2,100 Descending Washington Center
01:07AM 39.4783 -78.7561 98° East 479 551 26,700 -2,100 Descending Washington Center
01:08AM 39.4636 -78.5969 97° East 466 536 24,600 -2,040 Descending Washington Center
01:09AM 39.4467 -78.4431 98° East 444 511 22,700 -1,980 Descending Washington Center
01:10AM 39.4311 -78.2972 98° East 426 490 20,800 -1,860 Descending Washington Center
01:11AM 39.4197 -78.1597 96° East 403 464 19,000 -1,620 Descending Washington Center
01:12AM 39.4036 -78.0278 99° East 383 441 17,600 -1,740 Descending Washington Center
01:13AM 39.3894 -77.9011 98° East 368 423 15,600 -1,320 Descending Washington Center
01:14AM 39.3939 -77.7722 87° East 362 417 15,000 -1,200 Descending Washington Center
01:15AM 39.3919 -77.6514 91° East 344 396 13,200 -2,040 Descending Washington Center
01:16AM 39.3772 -77.5272 99° East 344 396 11,000 -1,740 Descending Washington Center
01:17AM 39.3667 -77.4500 100° East 346 398 10,300 -1,200 Descending Potomac TRACON
01:18AM 39.3500 -77.3500 102° East 320 368 9,100 -1,500 Descending Potomac TRACON
01:19AM 39.3500 -77.2500 90° East 295 339 7,500 -1,380 Descending Potomac TRACON
01:20AM 39.3333 -77.1667 104° East 288 331 6,400 -1,200 Descending Potomac TRACON
01:21AM 39.3167 -77.0667 102° East 282 325 5,200 -960 Descending Potomac TRACON
01:22AM 39.3167 -76.9833 90° East 269 310 4,500 -900 Descending Potomac TRACON
01:23AM 39.3000 -76.8833 102° East 247 284 3,400 -900 Descending Potomac TRACON
01:24AM 39.2833 -76.8167 108° East 231 266 2,800 -600 Descending Potomac TRACON
01:25AM 39.2667 -76.7500 108° East 212 244 2,200 -780 Descending Potomac TRACON
01:26AM 39.2333 -76.7333 159° South 189 217 1,300 -840 Descending Potomac TRACON
01:27AM 39.2000 -76.7000 142° Southeast 143 165 500 -780 Descending Potomac TRACON
01:29AM 39.1754 -76.6683 142° Southeast  Level Estimated
01:36AM 39.1754 -76.6683 142° Southeast  Level Estimated
01:37AM 39.1754 -76.6683 142° Southeast  Level Estimated
01:38AM 39.1754 -76.6683 142° Southeast  Level Estimated